Time;durP1;ratioP1;P1;durP2;ratioP2;P2;SDS_P1;SDS_P2;PMS_P1;PMS_P2;Temp;Humidity;BMP_temperature;BMP_pressure;BME280_temperature;BME280_humidity;BME280_pressure;Samples;Min_cycle;Max_cycle;Signal;HPM_P1;HPM_P2
2023/12/04 00:01:16;;;;;;;17.75;8.65;;;19.50;53.60;;;;;;5093353;28;20043;-57
2023/12/04 00:03:43;;;;;;;14.65;8.70;;;19.50;53.50;;;;;;5094546;28;20596;-57
2023/12/04 00:06:10;;;;;;;16.98;8.85;;;19.50;53.50;;;;;;5109871;28;20022;-56
2023/12/04 00:08:37;;;;;;;34.83;10.07;;;19.50;53.70;;;;;;5101544;28;20024;-57
2023/12/04 00:11:04;;;;;;;26.60;9.73;;;19.50;54.30;;;;;;5113003;28;20115;-54
2023/12/04 00:13:30;;;;;;;14.88;8.45;;;19.50;54.80;;;;;;5095380;28;20032;-56
2023/12/04 00:15:56;;;;;;;24.90;8.35;;;19.50;53.90;;;;;;5112891;28;20027;-57
2023/12/04 00:18:21;;;;;;;17.13;8.20;;;19.50;54.00;;;;;;5113073;28;20032;-56
2023/12/04 00:20:47;;;;;;;19.27;8.00;;;19.50;54.00;;;;;;5101348;28;20487;-57
2023/12/04 00:23:13;;;;;;;31.25;8.60;;;19.50;54.30;;;;;;5106722;28;20031;-52
2023/12/04 00:25:39;;;;;;;18.60;8.40;;;19.50;54.40;;;;;;5113439;28;20451;-56
2023/12/04 00:28:05;;;;;;;17.85;8.38;;;19.50;54.30;;;;;;5113013;28;20030;-53
2023/12/04 00:30:31;;;;;;;21.40;7.55;;;19.40;54.10;;;;;;5110560;28;20521;-55
2023/12/04 00:32:56;;;;;;;17.65;8.45;;;19.50;54.10;;;;;;5095987;28;20016;-57
2023/12/04 00:35:22;;;;;;;15.13;7.63;;;19.40;54.10;;;;;;5113131;28;20524;-57
2023/12/04 00:37:48;;;;;;;17.65;8.15;;;19.40;54.00;;;;;;5112389;28;20403;-58
2023/12/04 00:40:14;;;;;;;22.30;8.80;;;19.40;54.10;;;;;;5105475;28;20107;-56
2023/12/04 00:42:40;;;;;;;14.88;7.82;;;19.40;54.00;;;;;;5101039;28;20571;-54
2023/12/04 00:45:06;;;;;;;15.40;7.82;;;19.40;53.70;;;;;;5093741;28;20022;-52
2023/12/04 00:47:32;;;;;;;16.20;8.25;;;19.40;53.70;;;;;;5100622;28;20016;-57
2023/12/04 00:49:57;;;;;;;11.98;7.18;;;19.40;53.60;;;;;;5092559;28;20439;-55
2023/12/04 00:52:23;;;;;;;16.58;7.00;;;19.40;53.40;;;;;;5092289;28;20383;-52
2023/12/04 00:54:49;;;;;;;14.57;7.30;;;19.40;53.40;;;;;;5098140;28;20032;-53
2023/12/04 00:57:15;;;;;;;13.77;7.07;;;19.40;53.30;;;;;;5100653;28;20027;-56
2023/12/04 00:59:41;;;;;;;14.77;7.57;;;19.40;53.30;;;;;;5092135;28;20035;-52
2023/12/04 01:02:07;;;;;;;17.90;7.20;;;19.40;53.30;;;;;;5092284;28;20028;-56
2023/12/04 01:04:33;;;;;;;12.50;7.00;;;19.40;53.20;;;;;;5092327;28;20020;-51
2023/12/04 01:06:59;;;;;;;16.33;7.28;;;19.40;53.20;;;;;;5092971;28;20498;-54
2023/12/04 01:09:25;;;;;;;13.02;7.20;;;19.40;53.20;;;;;;5100155;28;20020;-54
2023/12/04 01:11:53;;;;;;;11.52;6.47;;;19.30;53.10;;;;;;5092127;28;20036;-54
2023/12/04 01:14:19;;;;;;;14.38;6.75;;;19.30;53.10;;;;;;5092139;28;20035;-54
2023/12/04 01:16:45;;;;;;;9.77;6.07;;;19.30;53.20;;;;;;5091893;28;20305;-54
2023/12/04 01:19:11;;;;;;;12.20;6.55;;;19.30;53.10;;;;;;5091747;28;20486;-57
2023/12/04 01:21:37;;;;;;;11.05;6.57;;;19.30;53.00;;;;;;5091963;28;20395;-56
2023/12/04 01:24:02;;;;;;;12.70;7.38;;;19.30;53.00;;;;;;5091920;28;20039;-57
2023/12/04 01:26:29;;;;;;;15.35;7.18;;;19.30;53.20;;;;;;5092168;28;20597;-54
2023/12/04 01:28:55;;;;;;;15.20;6.85;;;19.30;53.10;;;;;;5099517;28;20035;-56
2023/12/04 01:31:21;;;;;;;10.65;6.28;;;19.30;53.10;;;;;;5091856;28;20024;-55
2023/12/04 01:33:46;;;;;;;11.90;6.25;;;19.30;53.10;;;;;;5091874;28;20502;-55
2023/12/04 01:36:13;;;;;;;13.52;6.55;;;19.30;53.10;;;;;;5091971;28;20031;-56
2023/12/04 01:38:38;;;;;;;14.13;6.72;;;19.30;53.10;;;;;;5094647;28;20032;-57
2023/12/04 01:41:05;;;;;;;11.27;6.80;;;19.20;53.00;;;;;;5107346;28;20023;-56
2023/12/04 01:43:30;;;;;;;11.52;6.97;;;19.30;53.10;;;;;;5099049;28;20020;-57
2023/12/04 01:45:57;;;;;;;10.02;6.18;;;19.20;53.10;;;;;;5112080;28;20363;-52
2023/12/04 01:48:24;;;;;;;10.57;6.28;;;19.30;53.10;;;;;;5111909;28;20032;-55
2023/12/04 01:50:51;;;;;;;12.20;6.38;;;19.20;53.00;;;;;;5111730;28;20066;-57
2023/12/04 01:53:17;;;;;;;10.32;6.50;;;19.20;53.00;;;;;;5111830;28;20036;-57
2023/12/04 01:55:43;;;;;;;11.57;6.07;;;19.20;53.00;;;;;;5101459;28;20024;-57
2023/12/04 01:58:10;;;;;;;9.13;5.93;;;19.20;53.00;;;;;;5103665;28;20027;-56
2023/12/04 02:00:36;;;;;;;9.13;6.47;;;19.20;53.00;;;;;;5111919;28;20023;-56
2023/12/04 02:03:02;;;;;;;11.38;6.13;;;19.20;53.00;;;;;;5111906;28;20027;-57
2023/12/04 02:05:29;;;;;;;10.60;5.93;;;19.20;53.00;;;;;;5112170;28;20032;-57
2023/12/04 02:07:55;;;;;;;9.85;5.68;;;19.20;53.00;;;;;;5111731;28;20019;-52
2023/12/04 02:10:22;;;;;;;11.15;6.30;;;19.20;52.90;;;;;;5111855;28;20539;-50
2023/12/04 02:12:48;;;;;;;10.80;6.35;;;19.20;52.80;;;;;;5107209;28;20028;-55
2023/12/04 02:15:14;;;;;;;9.73;6.07;;;19.20;52.80;;;;;;5099719;28;20016;-55
2023/12/04 02:17:42;;;;;;;11.27;6.03;;;19.20;52.80;;;;;;5095478;28;20085;-55
2023/12/04 02:20:09;;;;;;;10.27;5.85;;;19.20;52.80;;;;;;5103015;28;20501;-52
2023/12/04 02:22:34;;;;;;;9.45;6.10;;;19.20;52.70;;;;;;5110253;28;20069;-57
2023/12/04 02:25:00;;;;;;;13.57;6.43;;;19.20;52.80;;;;;;5094410;28;20470;-55
2023/12/04 02:27:37;;;;;;;11.23;6.18;;;19.20;52.80;;;;;;5111406;28;20020;-56
2023/12/04 02:30:06;;;;;;;19.17;5.95;;;19.20;53.30;;;;;;5111789;28;20101;-54
2023/12/04 02:32:36;;;;;;;12.93;6.05;;;19.20;52.60;;;;;;5111513;28;20106;-53
2023/12/04 02:35:04;;;;;;;9.48;5.55;;;19.20;53.20;;;;;;5111632;28;20034;-54
2023/12/04 02:37:31;;;;;;;15.27;6.20;;;19.20;53.60;;;;;;5111307;28;20055;-53
2023/12/04 02:39:58;;;;;;;10.82;6.07;;;19.20;53.20;;;;;;5111408;28;20027;-55
2023/12/04 02:42:27;;;;;;;11.18;5.88;;;19.20;53.60;;;;;;5111439;28;20095;-55
2023/12/04 02:44:53;;;;;;;9.63;5.97;;;19.20;53.20;;;;;;5111458;28;20024;-54
2023/12/04 02:47:19;;;;;;;9.98;5.97;;;19.10;53.30;;;;;;5111240;28;20024;-52
2023/12/04 02:49:45;;;;;;;12.82;6.43;;;19.10;53.30;;;;;;5109819;28;20559;-56
2023/12/04 02:52:11;;;;;;;11.18;6.00;;;19.10;53.00;;;;;;5099274;28;20403;-54
2023/12/04 02:54:36;;;;;;;10.75;5.97;;;19.10;53.00;;;;;;5091096;28;20040;-51
2023/12/04 02:57:02;;;;;;;11.10;5.82;;;19.10;52.90;;;;;;5091051;28;20024;-54
2023/12/04 02:59:28;;;;;;;9.75;5.68;;;19.10;52.80;;;;;;5090663;28;20032;-57
2023/12/04 03:01:54;;;;;;;11.15;6.18;;;19.10;53.50;;;;;;5091898;28;20024;-55
2023/12/04 03:04:20;;;;;;;9.90;6.45;;;19.10;52.70;;;;;;5094555;28;20028;-54
2023/12/04 03:06:46;;;;;;;10.10;5.57;;;19.10;52.80;;;;;;5094490;28;20027;-54
2023/12/04 03:09:11;;;;;;;8.60;5.40;;;19.00;52.50;;;;;;5094698;28;20172;-54
2023/12/04 03:11:41;;;;;;;11.30;5.75;;;19.00;52.70;;;;;;5094560;28;20468;-55
2023/12/04 03:14:07;;;;;;;10.35;5.82;;;19.00;52.50;;;;;;5094668;28;20024;-54
2023/12/04 03:16:33;;;;;;;9.23;5.35;;;19.00;52.50;;;;;;5094338;28;20032;-58
2023/12/04 03:18:59;;;;;;;10.50;5.55;;;19.00;52.50;;;;;;5099965;28;20371;-57
2023/12/04 03:21:25;;;;;;;9.40;5.90;;;19.00;53.00;;;;;;5099331;28;20024;-55
2023/12/04 03:23:51;;;;;;;8.77;5.38;;;19.00;52.50;;;;;;5094249;28;20024;-50
2023/12/04 03:26:17;;;;;;;8.77;5.25;;;19.00;52.60;;;;;;5097376;28;20499;-54
2023/12/04 03:28:43;;;;;;;10.52;5.65;;;19.00;52.60;;;;;;5097281;28;20846;-53
2023/12/04 03:31:09;;;;;;;8.70;5.10;;;19.00;52.50;;;;;;5109699;28;20020;-55
2023/12/04 03:33:35;;;;;;;8.90;5.60;;;19.00;52.40;;;;;;5101859;28;20024;-52
2023/12/04 03:36:01;;;;;;;9.30;5.25;;;19.00;52.00;;;;;;5114273;28;20024;-52
2023/12/04 03:38:27;;;;;;;8.45;5.57;;;19.00;52.30;;;;;;5113846;28;20031;-52
2023/12/04 03:40:52;;;;;;;9.05;5.45;;;19.00;52.50;;;;;;5114392;28;20031;-54
2023/12/04 03:43:18;;;;;;;7.97;5.03;;;19.00;51.80;;;;;;5114163;28;20020;-54
2023/12/04 03:45:44;;;;;;;9.55;5.97;;;19.00;51.90;;;;;;5111599;28;20391;-51
2023/12/04 03:48:10;;;;;;;7.80;5.35;;;19.00;51.70;;;;;;5097767;28;20034;-56
2023/12/04 03:50:36;;;;;;;7.60;4.97;;;19.00;52.20;;;;;;5114040;28;20023;-53
2023/12/04 03:53:02;;;;;;;9.70;5.88;;;19.00;51.90;;;;;;5113924;28;20035;-50
2023/12/04 03:55:28;;;;;;;10.35;5.93;;;19.00;52.20;;;;;;5114009;28;20024;-55
2023/12/04 03:57:54;;;;;;;9.18;5.75;;;19.00;51.70;;;;;;5113589;28;20110;-52
2023/12/04 04:00:20;;;;;;;10.60;5.60;;;19.00;52.30;;;;;;5113845;28;20078;-54
2023/12/04 04:02:46;;;;;;;8.45;5.72;;;19.00;51.60;;;;;;5114217;28;20092;-55
2023/12/04 04:05:12;;;;;;;8.60;5.63;;;19.00;51.80;;;;;;5112400;28;20752;-56
2023/12/04 04:07:39;;;;;;;10.00;5.50;;;19.00;51.80;;;;;;5096555;28;20020;-54
2023/12/04 04:10:05;;;;;;;9.90;5.50;;;19.00;51.80;;;;;;5093337;28;20077;-54
2023/12/04 04:12:31;;;;;;;9.25;5.38;;;19.00;51.60;;;;;;5093104;28;20027;-55
2023/12/04 04:14:57;;;;;;;10.45;5.47;;;19.00;51.70;;;;;;5101804;27;20027;-56
2023/12/04 04:17:25;;;;;;;10.95;5.90;;;18.90;51.70;;;;;;5107449;28;20027;-55
2023/12/04 04:19:54;;;;;;;9.60;5.55;;;19.00;52.00;;;;;;5113380;28;20034;-54
2023/12/04 04:22:21;;;;;;;9.15;5.78;;;18.90;52.10;;;;;;5113524;28;20043;-53
2023/12/04 04:24:47;;;;;;;8.00;5.15;;;19.00;52.00;;;;;;5113516;27;20403;-57
2023/12/04 04:27:13;;;;;;;9.45;5.53;;;18.90;51.90;;;;;;5112175;28;20042;-51
2023/12/04 04:29:38;;;;;;;8.15;5.60;;;18.90;51.90;;;;;;5113060;28;20027;-58
2023/12/04 04:32:05;;;;;;;7.93;5.25;;;19.00;51.60;;;;;;5113164;28;20032;-56
2023/12/04 04:34:30;;;;;;;9.50;5.60;;;18.90;52.30;;;;;;5113287;28;20491;-55
2023/12/04 04:36:56;;;;;;;8.52;5.50;;;18.90;51.90;;;;;;5113137;28;20032;-53
2023/12/04 04:39:22;;;;;;;8.60;5.40;;;18.90;52.10;;;;;;5112725;28;20024;-52
2023/12/04 04:41:48;;;;;;;8.95;5.30;;;18.90;51.90;;;;;;5103302;28;20036;-58
2023/12/04 04:44:13;;;;;;;7.70;5.15;;;18.90;51.90;;;;;;5098628;28;20027;-54
2023/12/04 04:46:39;;;;;;;8.45;5.25;;;18.90;52.10;;;;;;5092603;28;20078;-56
2023/12/04 04:49:07;;;;;;;8.30;5.13;;;18.90;51.80;;;;;;5092173;28;20032;-58
2023/12/04 04:51:34;;;;;;;8.43;5.43;;;18.90;52.00;;;;;;5092278;28;20063;-55
2023/12/04 04:54:01;;;;;;;11.25;5.22;;;18.90;52.00;;;;;;5092587;28;20039;-57
2023/12/04 04:56:27;;;;;;;9.07;5.35;;;18.90;52.20;;;;;;5092551;28;20062;-56
2023/12/04 04:58:53;;;;;;;9.10;5.53;;;18.90;51.90;;;;;;5092017;28;20499;-53
2023/12/04 05:01:18;;;;;;;7.10;4.80;;;18.90;52.20;;;;;;5092369;28;20027;-57
2023/12/04 05:03:44;;;;;;;9.55;5.65;;;18.90;51.60;;;;;;5092258;28;20024;-57
2023/12/04 05:06:10;;;;;;;11.23;5.47;;;18.90;51.70;;;;;;5092269;28;20027;-57
2023/12/04 05:08:36;;;;;;;8.85;5.22;;;18.90;51.70;;;;;;5097318;28;20023;-57
2023/12/04 05:11:01;;;;;;;8.45;5.20;;;18.90;51.50;;;;;;5100896;28;20024;-54
2023/12/04 05:13:27;;;;;;;6.95;4.53;;;18.90;51.60;;;;;;5092154;28;20056;-58
2023/12/04 05:15:53;;;;;;;8.48;5.70;;;18.90;51.70;;;;;;5093713;28;20028;-54
2023/12/04 05:18:19;;;;;;;13.15;4.78;;;18.90;51.70;;;;;;5098069;28;20032;-57
2023/12/04 05:20:44;;;;;;;8.32;5.22;;;18.90;51.90;;;;;;5092010;28;20031;-56
2023/12/04 05:23:10;;;;;;;11.60;4.95;;;18.90;51.50;;;;;;5091983;28;20028;-57
2023/12/04 05:25:36;;;;;;;9.07;5.38;;;18.90;51.80;;;;;;5091579;28;20028;-56
2023/12/04 05:28:02;;;;;;;8.38;5.30;;;18.90;51.90;;;;;;5091591;28;20023;-54
2023/12/04 05:30:28;;;;;;;11.00;5.35;;;18.90;51.80;;;;;;5098544;28;20041;-53
2023/12/04 05:32:54;;;;;;;8.63;5.15;;;18.90;51.90;;;;;;5112074;28;20114;-56
2023/12/04 05:35:20;;;;;;;10.32;5.18;;;18.90;51.60;;;;;;5112283;28;20107;-57
2023/12/04 05:37:46;;;;;;;9.60;5.25;;;18.90;51.60;;;;;;5101286;28;20024;-52
2023/12/04 05:40:12;;;;;;;8.32;5.35;;;18.90;51.30;;;;;;5104480;28;20043;-56
2023/12/04 05:42:38;;;;;;;7.72;5.30;;;18.90;51.60;;;;;;5112139;28;20281;-54
2023/12/04 05:45:04;;;;;;;9.05;5.47;;;18.90;51.50;;;;;;5112096;28;20038;-57
2023/12/04 05:47:30;;;;;;;8.38;5.25;;;18.90;51.20;;;;;;5110886;28;20034;-56
2023/12/04 05:49:56;;;;;;;8.32;5.03;;;18.90;51.60;;;;;;5097606;28;20028;-54
2023/12/04 05:52:22;;;;;;;7.25;5.18;;;18.90;51.40;;;;;;5129447;22;20078;-55
2023/12/04 05:54:47;;;;;;;8.50;5.13;;;18.90;51.70;;;;;;5123495;28;20072;-55
2023/12/04 05:57:13;;;;;;;7.68;5.70;;;18.90;51.30;;;;;;5114435;28;20027;-55
2023/12/04 05:59:39;;;;;;;6.65;4.60;;;18.90;51.60;;;;;;5130911;28;20069;-54
2023/12/04 06:02:05;;;;;;;8.13;5.35;;;18.90;51.60;;;;;;5123656;28;20490;-56
2023/12/04 06:04:30;;;;;;;9.82;5.50;;;18.90;51.40;;;;;;5128245;28;20024;-53
2023/12/04 06:06:56;;;;;;;7.70;5.20;;;18.90;51.50;;;;;;5123716;28;20073;-58
2023/12/04 06:09:22;;;;;;;7.57;4.43;;;18.90;51.60;;;;;;5132039;28;20023;-57
2023/12/04 06:11:48;;;;;;;8.07;4.72;;;18.90;52.20;;;;;;5121203;28;20051;-57
2023/12/04 06:14:13;;;;;;;9.55;5.63;;;18.90;51.20;;;;;;5132215;28;20035;-58
2023/12/04 06:16:39;;;;;;;8.18;5.30;;;18.90;51.30;;;;;;5132298;28;20027;-58
2023/12/04 06:19:05;;;;;;;8.48;5.00;;;18.90;51.70;;;;;;5131890;28;20024;-58
2023/12/04 06:21:31;;;;;;;7.80;5.30;;;18.90;51.60;;;;;;5132303;28;20031;-54
2023/12/04 06:23:57;;;;;;;7.53;5.25;;;18.80;51.70;;;;;;5132116;28;20023;-56
2023/12/04 06:26:24;;;;;;;7.18;4.80;;;18.90;51.70;;;;;;5132073;28;20547;-58
2023/12/04 06:28:50;;;;;;;8.23;5.18;;;18.90;52.10;;;;;;5131712;28;20023;-56
2023/12/04 06:31:16;;;;;;;9.73;5.30;;;18.90;51.40;;;;;;5128338;28;20061;-55
2023/12/04 06:33:42;;;;;;;8.38;5.35;;;18.90;51.20;;;;;;5119718;28;20035;-58
2023/12/04 06:36:09;;;;;;;8.52;5.35;;;18.90;51.70;;;;;;5132127;27;20030;-55
2023/12/04 06:38:39;;;;;;;9.07;5.47;;;18.80;51.00;;;;;;5117487;27;20031;-52
2023/12/04 06:41:05;;;;;;;8.60;5.32;;;18.80;51.60;;;;;;5117791;27;20443;-53
2023/12/04 06:43:32;;;;;;;8.50;5.47;;;18.80;51.30;;;;;;5135969;27;20030;-57
2023/12/04 06:45:59;;;;;;;9.38;5.45;;;18.80;51.20;;;;;;5135855;27;20101;-56
2023/12/04 06:48:25;;;;;;;9.02;5.25;;;18.80;51.10;;;;;;5100108;27;20456;-55
2023/12/04 06:50:51;;;;;;;10.27;5.60;;;18.80;51.50;;;;;;5135551;27;20110;-56
2023/12/04 06:53:16;;;;;;;9.70;5.60;;;18.80;51.70;;;;;;5135525;27;20134;-50
2023/12/04 06:55:42;;;;;;;8.98;5.57;;;18.80;51.20;;;;;;5135698;27;20034;-58
2023/12/04 06:58:08;;;;;;;9.05;5.55;;;18.80;51.70;;;;;;5135345;27;20080;-58
2023/12/04 07:00:34;;;;;;;10.00;5.65;;;18.80;51.10;;;;;;5135641;27;20526;-54
2023/12/04 07:03:00;;;;;;;8.30;5.35;;;18.80;52.20;;;;;;5135388;27;20027;-58
2023/12/04 07:05:25;;;;;;;8.80;5.82;;;18.80;51.60;;;;;;5122543;27;20028;-58
2023/12/04 07:07:51;;;;;;;8.93;5.20;;;18.80;51.40;;;;;;5132837;27;20111;-58
2023/12/04 07:10:17;;;;;;;8.18;5.07;;;18.80;52.40;;;;;;5134823;27;20019;-57
2023/12/04 07:12:44;;;;;;;9.48;5.43;;;18.80;51.60;;;;;;5127837;27;20443;-58
2023/12/04 07:15:11;;;;;;;9.82;5.95;;;18.80;51.50;;;;;;5122020;27;20489;-58
2023/12/04 07:17:37;;;;;;;8.98;5.70;;;18.80;51.40;;;;;;5109181;28;20019;-51
2023/12/04 07:20:06;;;;;;;9.98;5.20;;;18.80;50.80;;;;;;5125653;27;20176;-55
2023/12/04 07:22:35;;;;;;;9.85;5.50;;;18.80;50.50;;;;;;5127637;27;20024;-58
2023/12/04 07:25:01;;;;;;;8.63;5.47;;;18.80;50.90;;;;;;5113613;27;20023;-56
2023/12/04 07:27:27;;;;;;;9.75;5.22;;;18.80;51.10;;;;;;5126145;27;20042;-58
2023/12/04 07:29:53;;;;;;;13.73;5.40;;;18.80;51.20;;;;;;5135003;27;20405;-54
2023/12/04 07:32:19;;;;;;;12.00;4.93;;;18.80;50.80;;;;;;5134809;27;20031;-55
2023/12/04 07:34:45;;;;;;;8.70;5.18;;;18.90;52.00;;;;;;5134950;27;20027;-57
2023/12/04 07:37:11;;;;;;;9.52;5.68;;;18.90;51.50;;;;;;5116600;27;20508;-52
2023/12/04 07:39:37;;;;;;;10.27;4.65;;;18.90;51.10;;;;;;5134582;27;20027;-55
2023/12/04 07:42:03;;;;;;;9.50;5.38;;;18.80;51.70;;;;;;5134854;27;20034;-52
2023/12/04 07:44:30;;;;;;;11.60;5.05;;;18.80;51.10;;;;;;5134772;27;20028;-51
2023/12/04 07:46:55;;;;;;;10.73;5.70;;;18.80;51.50;;;;;;5134665;27;20019;-54
2023/12/04 07:49:21;;;;;;;9.30;4.85;;;18.80;51.30;;;;;;5134187;27;20420;-58
2023/12/04 07:51:47;;;;;;;7.85;5.18;;;18.80;51.50;;;;;;5107983;27;20023;-58
2023/12/04 07:54:13;;;;;;;11.30;5.38;;;18.80;50.70;;;;;;5117927;27;20386;-56
2023/12/04 07:56:39;;;;;;;11.60;4.80;;;18.90;51.80;;;;;;5124131;27;20501;-58
2023/12/04 07:59:04;;;;;;;19.48;5.45;;;18.90;52.70;;;;;;5107992;27;20035;-57
2023/12/04 08:01:30;;;;;;;16.23;5.03;;;18.90;52.20;;;;;;5109890;28;20027;-58
2023/12/04 08:03:56;;;;;;;14.85;5.35;;;18.90;52.20;;;;;;5106018;28;20177;-56
2023/12/04 08:06:22;;;;;;;19.52;5.30;;;18.90;52.10;;;;;;5097489;27;20040;-59
2023/12/04 08:08:47;;;;;;;19.05;5.45;;;18.90;53.40;;;;;;5110255;27;20107;-58
2023/12/04 08:11:13;;;;;;;12.45;5.60;;;18.90;54.30;;;;;;5124996;27;20043;-58
2023/12/04 08:13:39;;;;;;;11.90;5.90;;;18.90;53.80;;;;;;5098553;27;20028;-58
2023/12/04 08:16:12;;;;;;;14.80;6.00;;;18.90;53.00;;;;;;5123277;27;20404;-59
2023/12/04 08:18:38;;;;;;;14.20;6.13;;;18.90;53.70;;;;;;5122421;27;20610;-58
2023/12/04 08:21:04;;;;;;;9.73;5.65;;;18.90;53.60;;;;;;5124695;27;20110;-59
2023/12/04 08:23:30;;;;;;;14.65;5.30;;;18.90;53.80;;;;;;5125303;27;20050;-59
2023/12/04 08:25:57;;;;;;;16.33;5.63;;;18.90;53.10;;;;;;5133976;27;20023;-60
2023/12/04 08:28:22;;;;;;;18.40;6.90;;;18.90;53.90;;;;;;5112998;27;20030;-58
2023/12/04 08:30:48;;;;;;;12.50;6.03;;;18.90;53.00;;;;;;5124860;27;20039;-58
2023/12/04 08:33:14;;;;;;;11.40;6.18;;;18.90;53.10;;;;;;5133694;27;20048;-57
2023/12/04 08:35:40;;;;;;;10.38;5.90;;;18.90;52.80;;;;;;5133594;27;20054;-56
2023/12/04 08:38:06;;;;;;;11.65;6.20;;;18.90;52.70;;;;;;5133219;27;20023;-57
2023/12/04 08:40:32;;;;;;;9.00;5.32;;;18.90;52.60;;;;;;5133586;27;20106;-58
2023/12/04 08:42:58;;;;;;;14.35;5.72;;;18.90;52.50;;;;;;5116993;27;20112;-53
2023/12/04 08:45:24;;;;;;;12.32;5.78;;;18.90;53.60;;;;;;5099683;27;20554;-56
2023/12/04 08:47:50;;;;;;;18.55;7.85;;;18.90;54.60;;;;;;5096563;28;20024;-52
2023/12/04 08:50:16;;;;;;;24.73;6.93;;;18.90;54.90;;;;;;5090669;28;20099;-58
2023/12/04 08:52:42;;;;;;;11.82;5.82;;;18.90;54.30;;;;;;5097521;28;20489;-56
2023/12/04 08:55:09;;;;;;;13.57;6.43;;;19.00;53.30;;;;;;5096503;28;20077;-57
2023/12/04 08:57:35;;;;;;;15.40;6.70;;;19.00;54.00;;;;;;5088650;28;20028;-56
2023/12/04 09:00:03;;;;;;;9.40;5.25;;;19.10;55.80;;;;;;5088604;28;20182;-54
2023/12/04 09:02:30;;;;;;;11.50;5.53;;;19.10;53.30;;;;;;5071369;28;20023;-57
2023/12/04 09:04:56;;;;;;;14.50;6.53;;;19.20;55.00;;;;;;5109351;28;20024;-58
2023/12/04 09:07:22;;;;;;;13.40;6.97;;;19.20;57.10;;;;;;5103308;28;20058;-57
2023/12/04 09:09:48;;;;;;;25.60;11.52;;;19.30;59.00;;;;;;5096098;28;20093;-57
2023/12/04 09:12:14;;;;;;;20.90;11.90;;;19.00;48.50;;;;;;5109032;28;20098;-57
2023/12/04 09:14:40;;;;;;;19.55;11.70;;;18.50;44.10;;;;;;5110038;28;20494;-56
2023/12/04 09:17:06;;;;;;;18.08;10.98;;;18.50;45.70;;;;;;5109170;28;20034;-54
2023/12/04 09:19:32;;;;;;;18.30;10.77;;;18.50;46.20;;;;;;5108863;28;20027;-57
2023/12/04 09:21:58;;;;;;;28.55;10.48;;;18.50;47.40;;;;;;5108132;28;20059;-58
2023/12/04 09:24:23;;;;;;;20.33;9.88;;;18.50;48.00;;;;;;5095970;27;20048;-57
2023/12/04 09:26:50;;;;;;;14.98;9.13;;;18.50;48.60;;;;;;5089523;28;20399;-57
2023/12/04 09:29:16;;;;;;;18.00;9.10;;;18.60;49.00;;;;;;5106245;28;20023;-57
2023/12/04 09:31:42;;;;;;;21.77;9.15;;;18.60;49.20;;;;;;5109909;28;20115;-57
2023/12/04 09:34:08;;;;;;;13.18;8.73;;;18.50;48.90;;;;;;5093377;28;20023;-57
2023/12/04 09:36:34;;;;;;;16.25;9.25;;;18.60;49.20;;;;;;5071476;28;20032;-54
2023/12/04 09:39:00;;;;;;;13.50;9.02;;;18.60;48.90;;;;;;5070567;28;20110;-50
2023/12/04 09:41:26;;;;;;;12.40;7.93;;;18.60;49.00;;;;;;5089626;28;20095;-58
2023/12/04 09:43:52;;;;;;;16.77;8.88;;;18.60;48.70;;;;;;5085075;28;20111;-55
2023/12/04 09:46:19;;;;;;;12.55;7.80;;;18.60;48.70;;;;;;5086264;28;20141;-54
2023/12/04 09:48:44;;;;;;;18.50;7.82;;;18.60;48.60;;;;;;5098912;28;20032;-56
2023/12/04 09:51:10;;;;;;;14.70;7.72;;;18.60;49.20;;;;;;5107498;28;20023;-57
2023/12/04 09:53:37;;;;;;;16.73;8.43;;;18.60;49.00;;;;;;5095866;28;20141;-56
2023/12/04 09:56:07;;;;;;;13.73;6.90;;;18.60;48.20;;;;;;5098006;28;20031;-56
2023/12/04 09:58:34;;;;;;;14.82;7.10;;;18.60;48.80;;;;;;5097021;28;20036;-57
2023/12/04 10:01:03;;;;;;;15.90;7.53;;;18.60;49.00;;;;;;5087326;28;20084;-57
2023/12/04 10:03:30;;;;;;;10.95;6.28;;;18.70;49.20;;;;;;5097933;28;20592;-57
2023/12/04 10:05:56;;;;;;;11.25;6.35;;;18.70;49.70;;;;;;5086820;28;20021;-54
2023/12/04 10:08:22;;;;;;;10.93;5.88;;;18.80;49.60;;;;;;5091344;28;20090;-58
2023/12/04 10:10:47;;;;;;;14.65;6.13;;;18.80;49.70;;;;;;5073404;28;20436;-58
2023/12/04 10:13:13;;;;;;;20.02;6.60;;;18.90;49.90;;;;;;5104586;28;20020;-58
2023/12/04 10:15:47;;;;;;;18.75;8.10;;;18.90;50.00;;;;;;5096375;28;20067;-53
2023/12/04 10:18:29;;;;;;;22.38;10.98;;;18.80;49.50;;;;;;5083513;28;20529;-53
2023/12/04 10:20:55;;;;;;;17.77;8.95;;;18.50;44.20;;;;;;5111342;28;20069;-52
2023/12/04 10:23:21;;;;;;;17.33;9.57;;;18.40;42.80;;;;;;5102137;28;20024;-57
2023/12/04 10:25:52;;;;;;;13.43;7.88;;;18.50;44.40;;;;;;5111368;28;20491;-58
2023/12/04 10:28:18;;;;;;;15.05;8.05;;;18.60;44.80;;;;;;5104542;28;20020;-56
2023/12/04 10:30:45;;;;;;;21.77;7.50;;;18.60;45.80;;;;;;5090976;28;20028;-54
2023/12/04 10:33:13;;;;;;;16.38;7.70;;;18.60;45.80;;;;;;5107294;28;20034;-58
2023/12/04 10:35:39;;;;;;;17.48;7.10;;;18.60;46.20;;;;;;5111239;28;20035;-57
2023/12/04 10:38:06;;;;;;;15.55;7.07;;;18.60;46.30;;;;;;5101502;28;20502;-57
2023/12/04 10:40:34;;;;;;;11.52;6.28;;;18.60;46.70;;;;;;5110137;28;20424;-58
2023/12/04 10:43:09;;;;;;;13.20;6.72;;;18.60;46.80;;;;;;5111973;28;20027;-55
2023/12/04 10:45:39;;;;;;;14.88;6.63;;;18.60;47.10;;;;;;5093683;28;20038;-57
2023/12/04 10:48:06;;;;;;;12.80;6.25;;;18.70;47.40;;;;;;5096957;28;20016;-56
2023/12/04 10:50:38;;;;;;;13.27;6.40;;;18.70;47.50;;;;;;5101447;28;20023;-55
2023/12/04 10:53:09;;;;;;;17.25;7.57;;;18.60;47.20;;;;;;5108906;28;20068;-55
2023/12/04 10:55:36;;;;;;;12.75;6.63;;;18.60;46.80;;;;;;5091935;28;20031;-49
2023/12/04 10:58:05;;;;;;;16.75;6.60;;;18.70;47.00;;;;;;5091042;28;20024;-55
2023/12/04 11:00:37;;;;;;;13.47;6.57;;;18.60;46.90;;;;;;5091121;28;20103;-53
2023/12/04 11:03:12;;;;;;;12.23;5.97;;;18.70;47.20;;;;;;5073312;28;20023;-48
2023/12/04 11:05:40;;;;;;;11.35;5.85;;;18.70;47.30;;;;;;5091688;28;20021;-56
2023/12/04 11:08:11;;;;;;;13.13;6.15;;;18.70;47.30;;;;;;5109870;28;20016;-53
2023/12/04 11:11:03;;;;;;;15.38;6.10;;;18.70;47.60;;;;;;5085795;28;20032;-54
2023/12/04 11:13:35;;;;;;;11.05;5.60;;;18.70;47.60;;;;;;5101669;28;20036;-55
2023/12/04 11:16:09;;;;;;;12.38;5.70;;;18.70;47.60;;;;;;5111114;28;20023;-56
2023/12/04 11:18:38;;;;;;;11.95;5.80;;;18.70;48.00;;;;;;5092609;28;20032;-56
2023/12/04 11:21:07;;;;;;;14.32;6.03;;;18.70;47.90;;;;;;5096224;28;20031;-56
2023/12/04 11:23:34;;;;;;;10.93;5.65;;;18.70;48.00;;;;;;5109780;28;20030;-56
2023/12/04 11:26:01;;;;;;;12.90;5.88;;;18.70;48.10;;;;;;5111142;28;20117;-50
2023/12/04 11:28:30;;;;;;;12.60;5.80;;;18.70;48.10;;;;;;5104431;28;20079;-56
2023/12/04 11:30:56;;;;;;;9.98;5.63;;;18.70;48.20;;;;;;5092928;28;20024;-54
2023/12/04 11:33:22;;;;;;;15.20;5.57;;;18.70;48.50;;;;;;5103987;28;20076;-57
2023/12/04 11:35:50;;;;;;;10.57;5.93;;;18.70;48.80;;;;;;5102176;28;20032;-47
2023/12/04 11:38:17;;;;;;;13.75;5.25;;;18.70;48.50;;;;;;5093315;28;20028;-56
2023/12/04 11:40:43;;;;;;;8.35;5.63;;;18.70;48.50;;;;;;5092472;28;20038;-55
2023/12/04 11:43:23;;;;;;;12.85;5.68;;;18.70;48.50;;;;;;5092599;28;20036;-55
2023/12/04 11:45:49;;;;;;;13.35;5.82;;;18.70;48.30;;;;;;5092563;28;20035;-53
2023/12/04 11:48:15;;;;;;;12.27;6.03;;;18.70;48.40;;;;;;5092413;28;20086;-56
2023/12/04 11:50:43;;;;;;;11.60;6.32;;;18.70;48.40;;;;;;5097931;28;20432;-56
2023/12/04 11:53:13;;;;;;;20.92;7.15;;;18.70;48.20;;;;;;5095833;28;20102;-56
2023/12/04 11:55:41;;;;;;;15.13;6.30;;;18.70;49.20;;;;;;5093608;28;20556;-55
2023/12/04 11:58:11;;;;;;;16.58;6.68;;;18.60;50.00;;;;;;5110189;28;20020;-56
2023/12/04 12:00:38;;;;;;;14.80;8.65;;;18.60;50.20;;;;;;5099889;28;20028;-56
2023/12/04 12:03:06;;;;;;;15.20;8.05;;;18.50;45.50;;;;;;5110012;28;20028;-55
2023/12/04 12:05:33;;;;;;;13.25;7.43;;;18.50;45.90;;;;;;5110159;28;20027;-55
2023/12/04 12:08:03;;;;;;;12.63;6.93;;;18.50;46.70;;;;;;5109251;28;20088;-55
2023/12/04 12:10:30;;;;;;;13.93;7.32;;;18.50;47.40;;;;;;5130876;22;20414;-52
2023/12/04 12:12:59;;;;;;;14.40;6.80;;;18.50;47.70;;;;;;5097965;28;20441;-53
2023/12/04 12:15:25;;;;;;;15.48;6.88;;;18.50;47.90;;;;;;5108577;28;20372;-49
2023/12/04 12:17:51;;;;;;;10.55;6.13;;;18.60;47.90;;;;;;5109130;28;20019;-55
2023/12/04 12:20:20;;;;;;;12.73;6.28;;;18.60;48.00;;;;;;5110249;27;20024;-55
2023/12/04 12:22:48;;;;;;;33.27;15.07;;;18.70;47.50;;;;;;5087365;28;20023;-55
2023/12/04 12:25:14;;;;;;;47.42;21.67;;;18.70;48.10;;;;;;5062087;28;20467;-52
2023/12/04 12:27:40;;;;;;;140.88;69.93;;;18.80;48.70;;;;;;5100637;28;20046;-55
2023/12/04 12:30:07;;;;;;;107.13;54.90;;;18.80;49.10;;;;;;5094994;28;20036;-55
2023/12/04 12:32:36;;;;;;;144.40;75.55;;;18.80;49.50;;;;;;5090761;28;20028;-54
2023/12/04 12:35:03;;;;;;;120.47;63.25;;;18.80;49.70;;;;;;5087002;28;20055;-55
2023/12/04 12:37:29;;;;;;;92.80;54.83;;;18.80;50.10;;;;;;5090821;28;20394;-52